sensor_id;sensor_type;location;lat;lon;timestamp;pressure;altitude;pressure_sealevel;temperature;humidity
53506;BME280;39388;50.936;6.848;2023-04-06T00:00:16;101241.94;;;4.89;58.44
53506;BME280;39388;50.936;6.848;2023-04-06T00:02:47;101244.56;;;4.92;58.39
53506;BME280;39388;50.936;6.848;2023-04-06T00:05:19;101243.66;;;4.90;58.56
53506;BME280;39388;50.936;6.848;2023-04-06T00:07:50;101242.75;;;4.88;58.58
53506;BME280;39388;50.936;6.848;2023-04-06T00:10:20;101244.31;;;4.83;58.57
53506;BME280;39388;50.936;6.848;2023-04-06T00:12:51;101235.91;;;4.87;59.06
53506;BME280;39388;50.936;6.848;2023-04-06T00:15:21;101245.25;;;4.86;58.74
53506;BME280;39388;50.936;6.848;2023-04-06T00:17:53;101213.34;;;4.72;59.03
53506;BME280;39388;50.936;6.848;2023-04-06T00:20:23;101239.22;;;4.84;58.42
53506;BME280;39388;50.936;6.848;2023-04-06T00:22:54;101227.09;;;4.75;58.94
53506;BME280;39388;50.936;6.848;2023-04-06T00:25:25;101227.25;;;4.82;59.00
53506;BME280;39388;50.936;6.848;2023-04-06T00:27:55;101231.53;;;4.83;58.77
53506;BME280;39388;50.936;6.848;2023-04-06T00:30:26;101217.84;;;4.81;58.86
53506;BME280;39388;50.936;6.848;2023-04-06T00:32:56;101220.41;;;4.81;58.76
53506;BME280;39388;50.936;6.848;2023-04-06T00:35:27;101204.78;;;4.70;59.00
53506;BME280;39388;50.936;6.848;2023-04-06T00:37:57;101219.50;;;4.79;58.44
53506;BME280;39388;50.936;6.848;2023-04-06T00:40:28;101212.44;;;4.70;58.81
53506;BME280;39388;50.936;6.848;2023-04-06T00:42:58;101213.19;;;4.66;58.43
53506;BME280;39388;50.936;6.848;2023-04-06T00:45:29;101220.09;;;4.70;58.75
53506;BME280;39388;50.936;6.848;2023-04-06T00:47:59;101208.84;;;4.63;58.51
53506;BME280;39388;50.936;6.848;2023-04-06T00:50:29;101214.88;;;4.65;58.87
53506;BME280;39388;50.936;6.848;2023-04-06T00:53:00;101200.94;;;4.54;58.71
53506;BME280;39388;50.936;6.848;2023-04-06T00:55:30;101206.84;;;4.51;58.91
53506;BME280;39388;50.936;6.848;2023-04-06T00:58:01;101206.97;;;4.56;58.80
53506;BME280;39388;50.936;6.848;2023-04-06T01:00:32;101210.25;;;4.52;59.13
53506;BME280;39388;50.936;6.848;2023-04-06T01:03:02;101201.66;;;4.48;59.17
53506;BME280;39388;50.936;6.848;2023-04-06T01:05:34;101151.44;;;4.17;59.65
53506;BME280;39388;50.936;6.848;2023-04-06T01:08:10;101200.72;;;4.44;59.87
53506;BME280;39388;50.936;6.848;2023-04-06T01:10:40;101193.78;;;4.40;59.82
53506;BME280;39388;50.936;6.848;2023-04-06T01:13:10;101190.28;;;4.37;60.23
53506;BME280;39388;50.936;6.848;2023-04-06T01:15:41;101188.44;;;4.33;59.82
53506;BME280;39388;50.936;6.848;2023-04-06T01:18:12;101180.69;;;4.29;60.31
53506;BME280;39388;50.936;6.848;2023-04-06T01:20:42;101176.28;;;4.24;60.61
53506;BME280;39388;50.936;6.848;2023-04-06T01:23:13;101165.16;;;4.22;60.57
53506;BME280;39388;50.936;6.848;2023-04-06T01:25:43;101175.38;;;4.22;60.27
53506;BME280;39388;50.936;6.848;2023-04-06T01:28:13;101171.91;;;4.20;60.44
53506;BME280;39388;50.936;6.848;2023-04-06T01:30:44;101164.22;;;4.18;61.00
53506;BME280;39388;50.936;6.848;2023-04-06T01:33:14;101125.19;;;3.92;60.87
53506;BME280;39388;50.936;6.848;2023-04-06T01:35:45;101159.84;;;4.14;61.04
53506;BME280;39388;50.936;6.848;2023-04-06T01:38:15;101158.94;;;4.12;61.07
53506;BME280;39388;50.936;6.848;2023-04-06T01:40:46;101139.84;;;3.97;60.99
53506;BME280;39388;50.936;6.848;2023-04-06T01:43:16;101158.72;;;4.04;61.58
53506;BME280;39388;50.936;6.848;2023-04-06T01:45:47;101159.47;;;4.00;61.74
53506;BME280;39388;50.936;6.848;2023-04-06T01:48:17;101155.16;;;3.99;61.98
53506;BME280;39388;50.936;6.848;2023-04-06T01:50:47;101137.78;;;3.86;61.93
53506;BME280;39388;50.936;6.848;2023-04-06T01:53:18;101158.41;;;3.93;61.70
53506;BME280;39388;50.936;6.848;2023-04-06T01:55:48;101158.34;;;3.92;61.61
53506;BME280;39388;50.936;6.848;2023-04-06T01:58:18;101157.47;;;3.90;61.84
53506;BME280;39388;50.936;6.848;2023-04-06T02:00:49;101158.22;;;3.87;61.99
53506;BME280;39388;50.936;6.848;2023-04-06T02:03:20;101157.38;;;3.87;61.68
53506;BME280;39388;50.936;6.848;2023-04-06T02:05:50;101140.91;;;3.77;61.97
53506;BME280;39388;50.936;6.848;2023-04-06T02:08:20;101147.06;;;3.83;62.28
53506;BME280;39388;50.936;6.848;2023-04-06T02:10:51;101151.31;;;3.83;62.42
53506;BME280;39388;50.936;6.848;2023-04-06T02:13:22;101144.38;;;3.79;62.22
53506;BME280;39388;50.936;6.848;2023-04-06T02:15:52;101149.47;;;3.79;62.33
53506;BME280;39388;50.936;6.848;2023-04-06T02:18:23;101140.00;;;3.75;62.68
53506;BME280;39388;50.936;6.848;2023-04-06T02:20:53;101144.25;;;3.74;62.54
53506;BME280;39388;50.936;6.848;2023-04-06T02:23:24;101144.19;;;3.73;62.63
53506;BME280;39388;50.936;6.848;2023-04-06T02:25:54;101116.47;;;3.56;62.85
53506;BME280;39388;50.936;6.848;2023-04-06T02:28:24;101138.84;;;3.65;62.87
53506;BME280;39388;50.936;6.848;2023-04-06T02:30:55;101146.50;;;3.65;63.16
53506;BME280;39388;50.936;6.848;2023-04-06T02:33:25;101143.03;;;3.63;63.17
53506;BME280;39388;50.936;6.848;2023-04-06T02:35:56;101130.06;;;3.55;63.08
53506;BME280;39388;50.936;6.848;2023-04-06T02:38:26;101125.72;;;3.52;63.41
53506;BME280;39388;50.936;6.848;2023-04-06T02:40:56;101130.06;;;3.55;63.32
53506;BME280;39388;50.936;6.848;2023-04-06T02:43:27;101129.88;;;3.49;63.25
53506;BME280;39388;50.936;6.848;2023-04-06T02:45:57;101135.94;;;3.52;63.52
53506;BME280;39388;50.936;6.848;2023-04-06T02:48:27;101134.88;;;3.46;63.92
53506;BME280;39388;50.936;6.848;2023-04-06T02:50:58;101121.84;;;3.36;63.72
53506;BME280;39388;50.936;6.848;2023-04-06T02:53:28;101139.16;;;3.47;63.69
53506;BME280;39388;50.936;6.848;2023-04-06T02:55:59;101137.50;;;3.47;63.71
53506;BME280;39388;50.936;6.848;2023-04-06T02:58:29;101131.47;;;3.45;63.92
53506;BME280;39388;50.936;6.848;2023-04-06T03:00:59;101133.09;;;3.43;64.23
53506;BME280;39388;50.936;6.848;2023-04-06T03:03:30;101138.13;;;3.42;64.36
53506;BME280;39388;50.936;6.848;2023-04-06T03:06:01;101116.56;;;3.30;64.62
53506;BME280;39388;50.936;6.848;2023-04-06T03:08:31;101114.81;;;3.29;64.25
53506;BME280;39388;50.936;6.848;2023-04-06T03:11:01;101124.31;;;3.33;64.40
53506;BME280;39388;50.936;6.848;2023-04-06T03:13:32;101125.00;;;3.29;64.54
53506;BME280;39388;50.936;6.848;2023-04-06T03:16:02;101126.75;;;3.30;64.85
53506;BME280;39388;50.936;6.848;2023-04-06T03:18:33;101122.44;;;3.28;65.00
53506;BME280;39388;50.936;6.848;2023-04-06T03:21:03;101123.16;;;3.23;64.86
53506;BME280;39388;50.936;6.848;2023-04-06T03:23:34;101114.50;;;3.18;64.76
53506;BME280;39388;50.936;6.848;2023-04-06T03:26:05;101121.38;;;3.21;64.97
53506;BME280;39388;50.936;6.848;2023-04-06T03:28:35;101120.50;;;3.20;65.34
53506;BME280;39388;50.936;6.848;2023-04-06T03:31:05;101124.78;;;3.21;65.19
53506;BME280;39388;50.936;6.848;2023-04-06T03:33:36;101117.00;;;3.17;65.53
53506;BME280;39388;50.936;6.848;2023-04-06T03:36:06;101112.56;;;3.11;65.62
53506;BME280;39388;50.936;6.848;2023-04-06T03:38:37;101096.09;;;3.01;65.09
53506;BME280;39388;50.936;6.848;2023-04-06T03:41:07;101117.81;;;3.16;65.54
53506;BME280;39388;50.936;6.848;2023-04-06T03:43:37;101098.72;;;3.03;65.57
53506;BME280;39388;50.936;6.848;2023-04-06T03:46:08;101125.41;;;3.14;65.58
53506;BME280;39388;50.936;6.848;2023-04-06T03:48:38;101119.28;;;3.09;65.61
53506;BME280;39388;50.936;6.848;2023-04-06T03:51:09;101113.19;;;3.04;65.70
53506;BME280;39388;50.936;6.848;2023-04-06T03:53:39;101111.47;;;3.03;65.84
53506;BME280;39388;50.936;6.848;2023-04-06T03:56:10;101116.63;;;3.06;66.06
53506;BME280;39388;50.936;6.848;2023-04-06T03:58:40;101120.84;;;3.04;66.24
53506;BME280;39388;50.936;6.848;2023-04-06T04:01:11;101120.78;;;3.02;66.02
53506;BME280;39388;50.936;6.848;2023-04-06T04:03:41;101117.22;;;2.97;66.32
53506;BME280;39388;50.936;6.848;2023-04-06T04:06:11;101117.25;;;2.99;66.10
53506;BME280;39388;50.936;6.848;2023-04-06T04:08:42;101111.22;;;2.95;66.68
53506;BME280;39388;50.936;6.848;2023-04-06T04:11:12;101119.78;;;2.97;66.69
53506;BME280;39388;50.936;6.848;2023-04-06T04:13:42;101117.16;;;2.96;66.49
53506;BME280;39388;50.936;6.848;2023-04-06T04:16:13;101104.16;;;2.88;66.80
53506;BME280;39388;50.936;6.848;2023-04-06T04:18:43;101108.34;;;2.86;66.39
53506;BME280;39388;50.936;6.848;2023-04-06T04:21:15;101111.78;;;2.86;66.64
53506;BME280;39388;50.936;6.848;2023-04-06T04:23:46;101117.72;;;2.87;67.22
53506;BME280;39388;50.936;6.848;2023-04-06T04:26:16;101122.66;;;2.82;67.06
53506;BME280;39388;50.936;6.848;2023-04-06T04:28:46;101126.91;;;2.82;67.39
53506;BME280;39388;50.936;6.848;2023-04-06T04:31:17;101115.72;;;2.78;67.50
53506;BME280;39388;50.936;6.848;2023-04-06T04:33:48;101123.34;;;2.76;67.46
53506;BME280;39388;50.936;6.848;2023-04-06T04:36:18;101115.69;;;2.76;67.81
53506;BME280;39388;50.936;6.848;2023-04-06T04:38:49;101109.72;;;2.76;67.55
53506;BME280;39388;50.936;6.848;2023-04-06T04:41:19;101117.44;;;2.77;67.69
53506;BME280;39388;50.936;6.848;2023-04-06T04:43:50;101112.25;;;2.76;67.99
53506;BME280;39388;50.936;6.848;2023-04-06T04:46:21;101121.81;;;2.82;67.74
53506;BME280;39388;50.936;6.848;2023-04-06T04:48:51;101122.56;;;2.79;67.80
53506;BME280;39388;50.936;6.848;2023-04-06T04:51:21;101114.00;;;2.77;68.42
53506;BME280;39388;50.936;6.848;2023-04-06T04:53:52;101109.63;;;2.73;67.75
53506;BME280;39388;50.936;6.848;2023-04-06T04:56:22;101124.19;;;2.77;67.91
53506;BME280;39388;50.936;6.848;2023-04-06T04:58:53;101119.06;;;2.75;68.25
53506;BME280;39388;50.936;6.848;2023-04-06T05:01:23;101123.34;;;2.76;68.20
53506;BME280;39388;50.936;6.848;2023-04-06T05:03:54;101117.28;;;2.73;67.99
53506;BME280;39388;50.936;6.848;2023-04-06T05:06:24;101110.38;;;2.70;68.13
53506;BME280;39388;50.936;6.848;2023-04-06T05:08:55;101125.09;;;2.79;68.11
53506;BME280;39388;50.936;6.848;2023-04-06T05:11:26;101127.72;;;2.81;68.00
53506;BME280;39388;50.936;6.848;2023-04-06T05:13:56;101115.94;;;2.84;67.96
53506;BME280;39388;50.936;6.848;2023-04-06T05:16:26;101116.91;;;2.88;67.85
53506;BME280;39388;50.936;6.848;2023-04-06T05:18:57;101125.72;;;2.98;68.06
53506;BME280;39388;50.936;6.848;2023-04-06T05:21:27;101126.13;;;3.10;67.57
53506;BME280;39388;50.936;6.848;2023-04-06T05:23:58;101124.06;;;3.26;67.24
53506;BME280;39388;50.936;6.848;2023-04-06T05:26:28;101124.34;;;3.35;66.74
53506;BME280;39388;50.936;6.848;2023-04-06T05:28:59;101134.56;;;3.64;66.57
53506;BME280;39388;50.936;6.848;2023-04-06T05:31:30;101137.88;;;3.89;66.07
53506;BME280;39388;50.936;6.848;2023-04-06T05:34:00;101132.34;;;4.04;65.36
53506;BME280;39388;50.936;6.848;2023-04-06T05:36:31;101115.47;;;4.09;65.08
53506;BME280;39388;50.936;6.848;2023-04-06T05:39:02;101119.16;;;4.19;64.94
53506;BME280;39388;50.936;6.848;2023-04-06T05:41:32;101122.38;;;4.13;65.02
53506;BME280;39388;50.936;6.848;2023-04-06T05:44:03;101133.28;;;4.07;64.93
53506;BME280;39388;50.936;6.848;2023-04-06T05:46:33;101098.25;;;4.02;65.08
53506;BME280;39388;50.936;6.848;2023-04-06T05:49:04;101127.19;;;4.65;64.59
53506;BME280;39388;50.936;6.848;2023-04-06T05:51:34;101123.09;;;4.71;63.32
53506;BME280;39388;50.936;6.848;2023-04-06T05:54:04;101128.44;;;4.81;63.84
53506;BME280;39388;50.936;6.848;2023-04-06T05:56:35;101129.28;;;5.16;63.36
53506;BME280;39388;50.936;6.848;2023-04-06T05:59:05;101122.84;;;5.71;62.64
53506;BME280;39388;50.936;6.848;2023-04-06T06:01:36;101114.56;;;6.24;61.00
53506;BME280;39388;50.936;6.848;2023-04-06T06:04:06;101124.34;;;6.96;58.98
53506;BME280;39388;50.936;6.848;2023-04-06T06:06:36;101122.00;;;7.62;57.54
53506;BME280;39388;50.936;6.848;2023-04-06T06:09:07;101113.97;;;8.06;56.32
53506;BME280;39388;50.936;6.848;2023-04-06T06:11:37;101108.28;;;8.32;55.74
53506;BME280;39388;50.936;6.848;2023-04-06T06:14:08;101110.84;;;8.32;55.98
53506;BME280;39388;50.936;6.848;2023-04-06T06:16:38;101118.19;;;8.01;56.56
53506;BME280;39388;50.936;6.848;2023-04-06T06:19:08;101103.09;;;7.57;57.28
53506;BME280;39388;50.936;6.848;2023-04-06T06:21:39;101115.44;;;7.26;57.82
53506;BME280;39388;50.936;6.848;2023-04-06T06:24:09;101104.03;;;7.08;58.01
53506;BME280;39388;50.936;6.848;2023-04-06T06:26:40;101098.97;;;7.13;58.27
53506;BME280;39388;50.936;6.848;2023-04-06T06:29:10;101112.75;;;7.18;58.56
53506;BME280;39388;50.936;6.848;2023-04-06T06:31:41;101109.34;;;7.20;58.28
53506;BME280;39388;50.936;6.848;2023-04-06T06:34:11;101106.13;;;7.32;57.90
53506;BME280;39388;50.936;6.848;2023-04-06T06:36:43;101109.59;;;7.36;57.57
53506;BME280;39388;50.936;6.848;2023-04-06T06:39:13;101093.22;;;7.28;57.44
53506;BME280;39388;50.936;6.848;2023-04-06T06:41:43;101106.38;;;7.46;57.92
53506;BME280;39388;50.936;6.848;2023-04-06T06:44:14;101109.84;;;7.51;57.22
53506;BME280;39388;50.936;6.848;2023-04-06T06:46:44;101107.44;;;7.64;57.38
53506;BME280;39388;50.936;6.848;2023-04-06T06:49:14;101110.16;;;7.75;56.91
53506;BME280;39388;50.936;6.848;2023-04-06T06:51:45;101098.00;;;7.63;57.07
53506;BME280;39388;50.936;6.848;2023-04-06T06:54:16;101110.84;;;7.63;57.49
53506;BME280;39388;50.936;6.848;2023-04-06T06:56:47;101113.50;;;7.69;57.48
53506;BME280;39388;50.936;6.848;2023-04-06T06:59:17;101107.78;;;7.89;57.43
53506;BME280;39388;50.936;6.848;2023-04-06T07:01:47;101102.09;;;8.16;56.89
53506;BME280;39388;50.936;6.848;2023-04-06T07:04:18;101097.97;;;8.29;56.82
53506;BME280;39388;50.936;6.848;2023-04-06T07:06:48;101098.09;;;8.43;56.83
53506;BME280;39388;50.936;6.848;2023-04-06T07:09:19;101094.47;;;9.21;55.39
53506;BME280;39388;50.936;6.848;2023-04-06T07:11:49;101078.63;;;10.03;53.51
53506;BME280;39388;50.936;6.848;2023-04-06T07:14:20;101077.81;;;10.35;52.07
53506;BME280;39388;50.936;6.848;2023-04-06T07:16:50;101076.13;;;10.43;52.51
53506;BME280;39388;50.936;6.848;2023-04-06T07:19:21;101077.00;;;10.96;51.86
53506;BME280;39388;50.936;6.848;2023-04-06T07:21:51;101052.72;;;11.81;50.04
53506;BME280;39388;50.936;6.848;2023-04-06T07:24:21;101070.63;;;12.15;49.09
53506;BME280;39388;50.936;6.848;2023-04-06T07:26:52;101068.19;;;11.89;49.72
53506;BME280;39388;50.936;6.848;2023-04-06T07:29:22;101076.00;;;11.64;50.10
53506;BME280;39388;50.936;6.848;2023-04-06T07:31:53;101074.31;;;11.52;50.59
53506;BME280;39388;50.936;6.848;2023-04-06T07:34:24;101078.66;;;11.45;50.27
53506;BME280;39388;50.936;6.848;2023-04-06T07:36:54;101064.03;;;11.38;50.28
53506;BME280;39388;50.936;6.848;2023-04-06T07:39:27;101079.44;;;11.61;49.73
53506;BME280;39388;50.936;6.848;2023-04-06T07:41:58;101082.88;;;11.82;49.50
53506;BME280;39388;50.936;6.848;2023-04-06T07:44:28;101070.69;;;12.09;49.27
53506;BME280;39388;50.936;6.848;2023-04-06T07:46:58;101067.84;;;12.49;48.15
53506;BME280;39388;50.936;6.848;2023-04-06T07:49:29;101071.97;;;12.74;47.29
53506;BME280;39388;50.936;6.848;2023-04-06T07:52:00;101071.94;;;12.78;47.30
53506;BME280;39388;50.936;6.848;2023-04-06T07:54:32;101068.34;;;12.92;46.68
53506;BME280;39388;50.936;6.848;2023-04-06T07:57:03;101069.16;;;12.98;46.15
53506;BME280;39388;50.936;6.848;2023-04-06T07:59:33;101070.56;;;13.32;45.86
53506;BME280;39388;50.936;6.848;2023-04-06T08:02:04;101063.38;;;13.60;45.08
53506;BME280;39388;50.936;6.848;2023-04-06T08:04:35;101064.69;;;13.92;44.52
53506;BME280;39388;50.936;6.848;2023-04-06T08:07:05;101060.03;;;14.18;44.71
53506;BME280;39388;50.936;6.848;2023-04-06T08:09:36;101060.69;;;14.32;44.00
53506;BME280;39388;50.936;6.848;2023-04-06T08:12:07;101065.25;;;14.15;44.06
53506;BME280;39388;50.936;6.848;2023-04-06T08:14:38;101068.84;;;14.06;44.00
53506;BME280;39388;50.936;6.848;2023-04-06T08:17:08;101060.78;;;14.24;43.91
53506;BME280;39388;50.936;6.848;2023-04-06T08:19:39;101061.38;;;14.44;43.47
53506;BME280;39388;50.936;6.848;2023-04-06T08:22:10;101054.25;;;14.57;43.18
53506;BME280;39388;50.936;6.848;2023-04-06T08:24:40;101057.69;;;14.57;42.77
53506;BME280;39388;50.936;6.848;2023-04-06T08:27:11;101061.31;;;14.48;42.69
53506;BME280;39388;50.936;6.848;2023-04-06T08:29:41;101058.81;;;14.42;43.33
53506;BME280;39388;50.936;6.848;2023-04-06T08:32:11;101051.75;;;14.50;43.17
53506;BME280;39388;50.936;6.848;2023-04-06T08:34:42;101058.19;;;14.79;42.84
53506;BME280;39388;50.936;6.848;2023-04-06T08:37:12;101062.94;;;15.09;42.12
53506;BME280;39388;50.936;6.848;2023-04-06T08:39:43;101040.06;;;15.28;41.95
53506;BME280;39388;50.936;6.848;2023-04-06T08:42:19;101050.22;;;15.40;41.66
53506;BME280;39388;50.936;6.848;2023-04-06T08:44:50;101040.75;;;15.38;41.59
53506;BME280;39388;50.936;6.848;2023-04-06T08:47:22;101043.28;;;15.41;41.63
53506;BME280;39388;50.936;6.848;2023-04-06T08:49:53;101047.34;;;15.54;41.49
53506;BME280;39388;50.936;6.848;2023-04-06T08:52:25;101045.41;;;15.64;41.49
53506;BME280;39388;50.936;6.848;2023-04-06T08:54:56;101036.56;;;15.73;41.52
53506;BME280;39388;50.936;6.848;2023-04-06T08:57:27;101038.25;;;15.75;41.44
53506;BME280;39388;50.936;6.848;2023-04-06T08:59:59;101041.78;;;15.71;41.42
53506;BME280;39388;50.936;6.848;2023-04-06T09:02:30;101034.94;;;15.67;41.20
53506;BME280;39388;50.936;6.848;2023-04-06T09:05:01;101035.88;;;15.65;41.11
53506;BME280;39388;50.936;6.848;2023-04-06T09:07:32;101038.59;;;15.58;41.22
53506;BME280;39388;50.936;6.848;2023-04-06T09:10:04;101029.47;;;15.39;41.36
53506;BME280;39388;50.936;6.848;2023-04-06T09:12:35;101046.94;;;15.30;41.70
53506;BME280;39388;50.936;6.848;2023-04-06T09:15:06;101034.28;;;15.13;42.23
53506;BME280;39388;50.936;6.848;2023-04-06T09:17:47;101047.31;;;15.10;42.62
53506;BME280;39388;50.936;6.848;2023-04-06T09:20:22;101053.47;;;15.05;42.65
53506;BME280;39388;50.936;6.848;2023-04-06T09:22:54;101044.16;;;14.94;42.73
53506;BME280;39388;50.936;6.848;2023-04-06T09:25:25;101046.00;;;14.86;42.75
53506;BME280;39388;50.936;6.848;2023-04-06T09:28:02;101039.22;;;14.77;42.48
53506;BME280;39388;50.936;6.848;2023-04-06T09:30:32;101039.22;;;14.77;42.60
53506;BME280;39388;50.936;6.848;2023-04-06T09:33:03;101031.50;;;14.74;42.58
53506;BME280;39388;50.936;6.848;2023-04-06T09:35:33;101027.91;;;14.81;42.72
53506;BME280;39388;50.936;6.848;2023-04-06T09:38:11;101017.53;;;14.78;42.36
53506;BME280;39388;50.936;6.848;2023-04-06T09:40:51;101032.94;;;14.92;42.53
53506;BME280;39388;50.936;6.848;2023-04-06T09:43:26;101031.06;;;14.99;42.51
53506;BME280;39388;50.936;6.848;2023-04-06T09:45:56;101010.41;;;14.94;42.51
53506;BME280;39388;50.936;6.848;2023-04-06T09:48:30;101029.28;;;15.03;42.40
53506;BME280;39388;50.936;6.848;2023-04-06T09:51:03;101020.56;;;15.07;42.37
53506;BME280;39388;50.936;6.848;2023-04-06T09:53:38;101016.97;;;15.12;42.16
53506;BME280;39388;50.936;6.848;2023-04-06T09:56:12;101024.72;;;15.15;42.36
53506;BME280;39388;50.936;6.848;2023-04-06T09:58:47;101022.91;;;15.19;42.16
53506;BME280;39388;50.936;6.848;2023-04-06T10:01:19;101021.97;;;15.23;42.16
53506;BME280;39388;50.936;6.848;2023-04-06T10:04:04;101021.94;;;15.25;42.35
53506;BME280;39388;50.936;6.848;2023-04-06T10:06:38;101017.59;;;15.25;42.75
53506;BME280;39388;50.936;6.848;2023-04-06T10:09:09;101021.81;;;15.31;42.54
53506;BME280;39388;50.936;6.848;2023-04-06T10:11:39;101026.97;;;15.33;42.65
53506;BME280;39388;50.936;6.848;2023-04-06T10:14:11;101022.75;;;15.27;42.49
53506;BME280;39388;50.936;6.848;2023-04-06T10:16:42;101013.34;;;15.21;42.22
53506;BME280;39388;50.936;6.848;2023-04-06T10:19:16;101019.47;;;15.19;42.30
53506;BME280;39388;50.936;6.848;2023-04-06T10:21:51;101021.09;;;15.23;42.68
53506;BME280;39388;50.936;6.848;2023-04-06T10:24:24;101018.44;;;15.26;42.31
53506;BME280;39388;50.936;6.848;2023-04-06T10:27:00;101015.75;;;15.30;42.70
53506;BME280;39388;50.936;6.848;2023-04-06T10:29:45;101010.41;;;15.38;42.25
53506;BME280;39388;50.936;6.848;2023-04-06T10:32:16;101011.13;;;15.47;42.69
53506;BME280;39388;50.936;6.848;2023-04-06T10:34:47;101001.56;;;15.47;42.49
53506;BME280;39388;50.936;6.848;2023-04-06T10:37:17;101003.34;;;15.45;42.26
53506;BME280;39388;50.936;6.848;2023-04-06T10:39:52;100999.84;;;15.46;41.95
53506;BME280;39388;50.936;6.848;2023-04-06T10:42:37;100992.25;;;15.37;41.73
53506;BME280;39388;50.936;6.848;2023-04-06T10:45:22;100987.84;;;15.40;41.83
53506;BME280;39388;50.936;6.848;2023-04-06T10:47:53;100992.06;;;15.46;41.58
53506;BME280;39388;50.936;6.848;2023-04-06T10:50:24;100993.72;;;15.50;41.59
53506;BME280;39388;50.936;6.848;2023-04-06T10:52:59;100992.84;;;15.51;41.32
53506;BME280;39388;50.936;6.848;2023-04-06T10:55:30;101003.13;;;15.56;41.28
53506;BME280;39388;50.936;6.848;2023-04-06T10:58:01;100980.69;;;15.52;40.93
53506;BME280;39388;50.936;6.848;2023-04-06T11:00:31;100994.41;;;15.58;40.68
53506;BME280;39388;50.936;6.848;2023-04-06T11:03:02;100997.81;;;15.60;40.32
53506;BME280;39388;50.936;6.848;2023-04-06T11:05:32;100993.50;;;15.59;40.07
53506;BME280;39388;50.936;6.848;2023-04-06T11:08:03;100995.28;;;15.59;39.81
53506;BME280;39388;50.936;6.848;2023-04-06T11:10:33;100994.38;;;15.60;39.51
53506;BME280;39388;50.936;6.848;2023-04-06T11:13:04;100984.06;;;15.57;39.48
53506;BME280;39388;50.936;6.848;2023-04-06T11:15:35;100983.00;;;15.66;39.36
53506;BME280;39388;50.936;6.848;2023-04-06T11:18:06;100995.84;;;15.72;39.47
53506;BME280;39388;50.936;6.848;2023-04-06T11:20:36;100994.06;;;15.75;39.59
53506;BME280;39388;50.936;6.848;2023-04-06T11:23:07;101000.81;;;15.84;39.61
53506;BME280;39388;50.936;6.848;2023-04-06T11:25:37;100998.81;;;15.94;39.58
53506;BME280;39388;50.936;6.848;2023-04-06T11:28:07;100991.72;;;16.02;39.58
53506;BME280;39388;50.936;6.848;2023-04-06T11:30:38;100992.47;;;16.08;39.30
53506;BME280;39388;50.936;6.848;2023-04-06T11:33:08;100988.34;;;15.99;39.04
53506;BME280;39388;50.936;6.848;2023-04-06T11:35:39;100979.63;;;16.00;39.05
53506;BME280;39388;50.936;6.848;2023-04-06T11:38:10;100985.69;;;16.00;39.15
53506;BME280;39388;50.936;6.848;2023-04-06T11:40:40;100989.78;;;16.12;39.22
53506;BME280;39388;50.936;6.848;2023-04-06T11:43:11;100982.72;;;16.17;39.12
53506;BME280;39388;50.936;6.848;2023-04-06T11:45:42;100979.28;;;16.17;38.82
53506;BME280;39388;50.936;6.848;2023-04-06T11:48:19;100984.28;;;16.25;38.79
53506;BME280;39388;50.936;6.848;2023-04-06T11:50:55;100978.09;;;16.30;38.52
53506;BME280;39388;50.936;6.848;2023-04-06T11:53:28;100977.19;;;16.31;38.59
53506;BME280;39388;50.936;6.848;2023-04-06T11:55:59;100966.66;;;16.36;38.61
53506;BME280;39388;50.936;6.848;2023-04-06T11:58:29;100978.59;;;16.45;38.70
53506;BME280;39388;50.936;6.848;2023-04-06T12:01:04;100974.22;;;16.45;38.25
53506;BME280;39388;50.936;6.848;2023-04-06T12:03:35;100980.38;;;16.43;38.23
53506;BME280;39388;50.936;6.848;2023-04-06T12:06:05;100975.94;;;16.46;38.56
53506;BME280;39388;50.936;6.848;2023-04-06T12:08:35;100970.72;;;16.48;38.54
53506;BME280;39388;50.936;6.848;2023-04-06T12:11:06;100979.50;;;16.42;38.40
53506;BME280;39388;50.936;6.848;2023-04-06T12:13:37;100972.56;;;16.43;38.46
53506;BME280;39388;50.936;6.848;2023-04-06T12:16:07;100968.97;;;16.48;38.52
53506;BME280;39388;50.936;6.848;2023-04-06T12:18:38;100965.47;;;16.49;38.73
53506;BME280;39388;50.936;6.848;2023-04-06T12:21:08;100967.13;;;16.52;38.81
53506;BME280;39388;50.936;6.848;2023-04-06T12:23:38;100965.53;;;16.46;38.75
53506;BME280;39388;50.936;6.848;2023-04-06T12:26:09;100960.59;;;16.35;38.74
53506;BME280;39388;50.936;6.848;2023-04-06T12:28:39;100967.56;;;16.35;39.01
53506;BME280;39388;50.936;6.848;2023-04-06T12:31:17;100977.91;;;16.36;38.74
53506;BME280;39388;50.936;6.848;2023-04-06T12:33:51;100961.66;;;16.28;38.81
53506;BME280;39388;50.936;6.848;2023-04-06T12:36:21;100976.50;;;16.25;38.81
53506;BME280;39388;50.936;6.848;2023-04-06T12:38:52;100956.88;;;16.10;38.80
53506;BME280;39388;50.936;6.848;2023-04-06T12:41:23;100968.00;;;16.16;38.81
53506;BME280;39388;50.936;6.848;2023-04-06T12:43:53;100965.25;;;16.23;38.94
53506;BME280;39388;50.936;6.848;2023-04-06T12:46:24;100965.22;;;16.24;39.59
53506;BME280;39388;50.936;6.848;2023-04-06T12:48:54;100981.69;;;16.25;39.90
53506;BME280;39388;50.936;6.848;2023-04-06T12:51:29;100967.09;;;16.17;39.68
53506;BME280;39388;50.936;6.848;2023-04-06T12:53:59;100977.59;;;16.14;39.61
53506;BME280;39388;50.936;6.848;2023-04-06T12:56:29;100972.50;;;16.10;39.97
53506;BME280;39388;50.936;6.848;2023-04-06T12:59:01;100977.78;;;16.05;39.86
53506;BME280;39388;50.936;6.848;2023-04-06T13:01:31;100980.50;;;16.00;40.11
53506;BME280;39388;50.936;6.848;2023-04-06T13:04:01;100975.41;;;15.96;40.64
53506;BME280;39388;50.936;6.848;2023-04-06T13:06:32;100982.34;;;15.95;41.03
53506;BME280;39388;50.936;6.848;2023-04-06T13:09:02;100968.66;;;15.87;40.99
53506;BME280;39388;50.936;6.848;2023-04-06T13:11:34;100987.09;;;15.78;40.92
53506;BME280;39388;50.936;6.848;2023-04-06T13:14:04;100970.16;;;15.58;41.03